createdAt,value
2023-02-14T00:00:47.872Z,67.17
2023-02-14T00:03:14.831Z,68.57
2023-02-14T00:05:41.274Z,67.60
2023-02-14T00:08:07.661Z,68.03
2023-02-14T00:10:34.065Z,66.58
2023-02-14T00:13:00.508Z,66.25
2023-02-14T00:15:27.056Z,67.72
2023-02-14T00:17:55.745Z,66.93
2023-02-14T00:20:23.553Z,67.21
2023-02-14T00:22:50.173Z,66.47
2023-02-14T00:25:16.919Z,66.37
2023-02-14T00:27:43.293Z,66.22
2023-02-14T00:30:11.389Z,66.29
2023-02-14T00:32:39.395Z,67.93
2023-02-14T00:35:06.956Z,66.87
2023-02-14T00:37:33.667Z,67.73
2023-02-14T00:40:00.058Z,66.77
2023-02-14T00:42:26.905Z,67.55
2023-02-14T00:44:53.270Z,67.38
2023-02-14T00:47:19.651Z,67.82
2023-02-14T00:49:47.272Z,66.25
2023-02-14T00:52:13.922Z,66.47
2023-02-14T00:54:40.288Z,67.64
2023-02-14T00:57:07.011Z,68.39
2023-02-14T00:59:33.367Z,68.56
2023-02-14T01:01:59.753Z,67.80
2023-02-14T01:04:26.176Z,67.73
2023-02-14T01:06:52.523Z,67.06
2023-02-14T01:09:18.877Z,66.99
2023-02-14T01:11:45.197Z,68.33
2023-02-14T01:14:11.613Z,68.78
2023-02-14T01:16:39.097Z,69.01
2023-02-14T01:19:05.567Z,70.05
2023-02-14T01:21:33.682Z,69.10
2023-02-14T01:24:04.437Z,68.18
2023-02-14T01:26:30.909Z,67.56
2023-02-14T01:28:57.574Z,67.62
2023-02-14T01:31:27.038Z,67.56
2023-02-14T01:33:54.406Z,67.56
2023-02-14T01:36:24.965Z,66.74
2023-02-14T01:38:56.649Z,67.82
2023-02-14T01:41:24.957Z,67.77
2023-02-14T01:43:57.440Z,67.61
2023-02-14T01:46:26.016Z,66.89
2023-02-14T01:48:55.785Z,68.31
2023-02-14T01:51:23.331Z,68.14
2023-02-14T01:53:52.157Z,67.57
2023-02-14T01:56:25.190Z,66.45
2023-02-14T01:58:56.070Z,68.36
2023-02-14T02:01:23.754Z,68.25
2023-02-14T02:03:56.170Z,69.14
2023-02-14T02:06:27.968Z,68.44
2023-02-14T02:09:30.834Z,66.80
2023-02-14T02:11:57.548Z,67.07
2023-02-14T02:14:24.235Z,68.14
2023-02-14T02:17:21.694Z,69.11
2023-02-14T02:20:23.646Z,68.71
2023-02-14T02:23:08.489Z,68.51
2023-02-14T02:26:05.805Z,68.12
2023-02-14T02:28:51.074Z,68.21
2023-02-14T02:31:45.987Z,68.43
2023-02-14T02:34:27.818Z,68.37
2023-02-14T02:37:35.716Z,67.88
2023-02-14T02:40:08.997Z,67.37
2023-02-14T02:43:32.843Z,67.54
2023-02-14T02:46:21.197Z,67.60
2023-02-14T02:49:03.519Z,67.45
2023-02-14T02:52:13.855Z,67.14
2023-02-14T02:54:48.645Z,67.24
2023-02-14T02:57:28.143Z,67.19
2023-02-14T02:59:57.389Z,67.58
2023-02-14T03:02:31.527Z,67.63
2023-02-14T03:05:00.360Z,67.29
2023-02-14T03:07:35.388Z,67.41
2023-02-14T03:10:29.665Z,67.11
2023-02-14T03:13:33.068Z,67.42
2023-02-14T03:16:30.228Z,68.40
2023-02-14T03:19:20.293Z,67.87
2023-02-14T03:21:57.620Z,68.03
2023-02-14T03:24:30.248Z,67.47
2023-02-14T03:27:03.874Z,67.97
2023-02-14T03:30:02.166Z,68.08
2023-02-14T03:32:34.060Z,68.00
2023-02-14T03:35:05.210Z,67.27
2023-02-14T03:37:38.520Z,67.47
2023-02-14T03:40:04.880Z,68.43
2023-02-14T03:42:37.803Z,68.51
2023-02-14T03:45:08.004Z,69.02
2023-02-14T03:47:39.437Z,69.45
2023-02-14T03:50:25.862Z,69.23
2023-02-14T03:52:54.020Z,70.00
2023-02-14T03:55:28.213Z,69.53
2023-02-14T03:58:06.421Z,69.78
2023-02-14T04:00:36.914Z,69.07
2023-02-14T04:03:11.644Z,68.90
2023-02-14T04:05:42.100Z,68.34
2023-02-14T04:08:08.436Z,68.12
2023-02-14T04:10:34.789Z,68.84
2023-02-14T04:13:01.248Z,68.65
2023-02-14T04:15:27.754Z,68.91
2023-02-14T04:18:12.733Z,69.21
2023-02-14T04:20:39.149Z,68.76
2023-02-14T04:23:05.481Z,69.02
2023-02-14T04:25:32.463Z,68.80
2023-02-14T04:27:58.815Z,69.34
2023-02-14T04:30:25.441Z,70.35
2023-02-14T04:32:51.850Z,69.68
2023-02-14T04:35:18.277Z,69.66
2023-02-14T04:37:45.547Z,69.23
2023-02-14T04:40:12.611Z,69.07
2023-02-14T04:42:38.973Z,68.50
2023-02-14T04:45:05.592Z,69.45
2023-02-14T04:47:31.936Z,70.19
2023-02-14T04:49:58.362Z,71.07
2023-02-14T04:52:24.736Z,70.39
2023-02-14T04:54:51.209Z,70.20
2023-02-14T04:57:17.682Z,69.48
2023-02-14T04:59:44.041Z,68.77
2023-02-14T05:02:10.650Z,70.62
2023-02-14T05:04:37.162Z,70.03
2023-02-14T05:07:03.607Z,69.67
2023-02-14T05:09:30.027Z,69.60
2023-02-14T05:11:56.444Z,69.85
2023-02-14T05:14:22.867Z,68.95
2023-02-14T05:16:49.270Z,70.33
2023-02-14T05:19:15.617Z,69.39
2023-02-14T05:21:42.050Z,69.56
2023-02-14T05:24:08.434Z,69.42
2023-02-14T05:26:34.781Z,69.33
2023-02-14T05:29:01.171Z,69.20
2023-02-14T05:31:27.644Z,69.30
2023-02-14T05:33:56.691Z,69.32
2023-02-14T05:36:23.193Z,69.11
2023-02-14T05:38:49.564Z,69.49
2023-02-14T05:41:15.927Z,69.79
2023-02-14T05:43:42.308Z,69.67
2023-02-14T05:46:09.047Z,69.99
2023-02-14T05:48:35.505Z,70.19
2023-02-14T05:51:09.821Z,70.11
2023-02-14T05:53:36.601Z,69.88
2023-02-14T05:56:03.455Z,69.66
2023-02-14T05:58:30.283Z,70.13
2023-02-14T06:00:58.376Z,69.93
2023-02-14T06:03:25.445Z,69.52
2023-02-14T06:05:52.117Z,70.05
2023-02-14T06:08:18.455Z,69.67
2023-02-14T06:10:44.911Z,69.96
2023-02-14T06:13:11.303Z,69.21
2023-02-14T06:15:38.407Z,69.75
2023-02-14T06:18:07.442Z,69.30
2023-02-14T06:20:34.025Z,69.84
2023-02-14T06:23:00.384Z,69.43
2023-02-14T06:25:26.811Z,69.02
2023-02-14T06:27:56.772Z,69.32
2023-02-14T06:30:23.349Z,69.98
2023-02-14T06:32:50.959Z,69.23
2023-02-14T06:35:17.771Z,69.85
2023-02-14T06:37:45.202Z,70.42
2023-02-14T06:40:13.141Z,70.58
2023-02-14T06:42:39.947Z,70.22
2023-02-14T06:45:07.069Z,70.29
2023-02-14T06:47:34.969Z,69.87
2023-02-14T06:50:04.208Z,70.33
2023-02-14T06:52:31.901Z,70.51
2023-02-14T06:54:58.285Z,70.86
2023-02-14T06:57:24.696Z,70.00
2023-02-14T06:59:51.044Z,70.13
2023-02-14T07:02:17.483Z,70.68
2023-02-14T07:04:43.922Z,70.67
2023-02-14T07:07:10.492Z,71.15
2023-02-14T07:09:37.519Z,70.80
2023-02-14T07:12:04.377Z,70.15
2023-02-14T07:14:30.972Z,69.82
2023-02-14T07:16:57.436Z,70.33
2023-02-14T07:19:23.954Z,70.49
2023-02-14T07:21:50.482Z,70.17
2023-02-14T07:24:16.860Z,70.21
2023-02-14T07:26:48.240Z,70.08
2023-02-14T07:29:14.716Z,70.18
2023-02-14T07:31:41.248Z,70.61
2023-02-14T07:34:07.824Z,70.39
2023-02-14T07:36:34.212Z,70.48
2023-02-14T07:39:00.685Z,70.90
2023-02-14T07:41:27.333Z,71.09
2023-02-14T07:43:53.730Z,71.06
2023-02-14T07:46:20.118Z,71.21
2023-02-14T07:48:46.560Z,71.61
2023-02-14T07:51:12.938Z,71.19
2023-02-14T07:53:39.442Z,70.62
2023-02-14T07:56:06.163Z,70.66
2023-02-14T07:58:32.865Z,71.27
2023-02-14T08:00:59.900Z,70.75
2023-02-14T08:03:26.479Z,70.79
2023-02-14T08:05:57.174Z,71.09
2023-02-14T08:08:25.887Z,70.77
2023-02-14T08:10:52.366Z,70.71
2023-02-14T08:13:18.729Z,70.42
2023-02-14T08:16:03.797Z,70.76
2023-02-14T08:18:31.788Z,71.19
2023-02-14T08:20:58.444Z,71.22
2023-02-14T08:23:25.498Z,71.38
2023-02-14T08:25:52.741Z,71.20
2023-02-14T08:28:21.752Z,71.96
2023-02-14T08:30:48.540Z,72.19
2023-02-14T08:33:15.122Z,72.13
2023-02-14T08:35:42.139Z,72.59
2023-02-14T08:38:08.518Z,72.75
2023-02-14T08:40:36.971Z,72.89
2023-02-14T08:43:07.698Z,73.72
2023-02-14T08:45:34.419Z,74.00
2023-02-14T08:48:10.634Z,74.23
2023-02-14T08:50:38.351Z,74.92
2023-02-14T08:53:09.900Z,74.74
2023-02-14T08:55:36.958Z,74.91
2023-02-14T08:58:04.636Z,74.84
2023-02-14T09:00:31.857Z,76.04
2023-02-14T09:02:58.617Z,75.66
2023-02-14T09:05:35.769Z,75.64
2023-02-14T09:08:03.257Z,75.86
2023-02-14T09:10:32.690Z,76.52
2023-02-14T09:12:59.126Z,75.45
2023-02-14T09:15:25.483Z,75.50
2023-02-14T09:17:51.905Z,76.21
2023-02-14T09:20:18.566Z,76.40
2023-02-14T09:22:46.562Z,76.46
2023-02-14T09:25:16.674Z,76.76
2023-02-14T09:27:43.352Z,77.10
2023-02-14T09:30:10.605Z,76.44
2023-02-14T09:32:37.138Z,76.82
2023-02-14T09:35:22.456Z,76.79
2023-02-14T09:37:48.889Z,76.37
2023-02-14T09:40:19.045Z,75.49
2023-02-14T09:42:48.977Z,74.79
2023-02-14T09:45:25.627Z,75.38
2023-02-14T09:48:10.673Z,74.91
2023-02-14T09:50:43.841Z,75.00
2023-02-14T09:53:22.837Z,74.53
2023-02-14T09:56:01.673Z,73.40
2023-02-14T09:58:49.254Z,73.10
2023-02-14T10:01:25.593Z,72.96
2023-02-14T10:04:18.574Z,72.31
2023-02-14T10:06:53.839Z,72.20
2023-02-14T10:09:45.076Z,72.82
2023-02-14T10:12:20.888Z,72.50
2023-02-14T10:14:48.096Z,71.81
2023-02-14T10:17:40.421Z,70.80
2023-02-14T10:20:19.864Z,70.05
2023-02-14T10:23:02.644Z,69.25
2023-02-14T10:25:40.837Z,69.55
2023-02-14T10:28:11.303Z,69.81
2023-02-14T10:30:40.060Z,69.70
2023-02-14T10:33:16.272Z,69.33
2023-02-14T10:35:52.406Z,69.58
2023-02-14T10:38:25.014Z,68.82
2023-02-14T10:41:26.019Z,67.78
2023-02-14T10:44:05.769Z,56.48
2023-02-14T10:46:50.744Z,49.07
2023-02-14T10:49:44.020Z,43.76
2023-02-14T10:52:28.702Z,43.01
2023-02-14T10:54:59.828Z,38.02
2023-02-14T10:57:26.217Z,38.71
2023-02-14T11:00:20.364Z,38.12
2023-02-14T11:02:50.556Z,37.54
2023-02-14T11:05:32.916Z,36.23
2023-02-14T11:08:00.023Z,37.01
2023-02-14T11:10:30.770Z,36.98
2023-02-14T11:12:57.396Z,36.47
2023-02-14T11:15:32.349Z,36.18
2023-02-14T11:18:26.944Z,35.04
2023-02-14T11:21:13.811Z,35.59
2023-02-14T11:23:45.884Z,35.50
2023-02-14T11:26:33.002Z,35.40
2023-02-14T11:29:10.887Z,36.20
2023-02-14T11:31:39.617Z,36.25
2023-02-14T11:34:31.134Z,36.40
2023-02-14T11:36:57.775Z,36.10
2023-02-14T11:39:33.963Z,35.91
2023-02-14T11:42:04.549Z,34.65
2023-02-14T11:44:33.153Z,34.28
2023-02-14T11:47:30.954Z,35.30
2023-02-14T11:50:20.390Z,36.31
2023-02-14T11:52:54.776Z,37.26
2023-02-14T11:55:29.780Z,37.45
2023-02-14T11:57:57.539Z,36.69
2023-02-14T12:00:26.897Z,37.08
2023-02-14T12:02:55.631Z,37.99
2023-02-14T12:05:35.269Z,36.79
2023-02-14T12:08:05.573Z,37.35
2023-02-14T12:10:35.375Z,36.82
2023-02-14T12:13:07.768Z,36.59
2023-02-14T12:15:57.515Z,35.90
2023-02-14T12:18:47.003Z,34.79
2023-02-14T12:21:36.936Z,34.14
2023-02-14T12:24:11.638Z,34.34
2023-02-14T12:27:04.741Z,33.66
2023-02-14T12:29:37.374Z,34.27
2023-02-14T12:32:32.276Z,34.73
2023-02-14T12:35:07.215Z,35.78
2023-02-14T12:38:03.941Z,36.20
2023-02-14T12:41:08.911Z,36.82
2023-02-14T12:44:01.390Z,36.30
2023-02-14T12:46:45.099Z,37.77
2023-02-14T12:49:14.526Z,38.66
2023-02-14T12:51:40.860Z,37.90
2023-02-14T12:54:16.329Z,37.22
2023-02-14T12:56:48.847Z,38.11
2023-02-14T12:59:28.411Z,38.29
2023-02-14T13:02:37.545Z,37.64
2023-02-14T13:05:39.293Z,38.15
2023-02-14T13:08:24.239Z,38.82
2023-02-14T13:11:08.982Z,39.06
2023-02-14T13:13:41.455Z,40.32
2023-02-14T13:16:32.020Z,40.88
2023-02-14T13:19:06.087Z,42.00
2023-02-14T13:21:35.455Z,43.33
2023-02-14T13:24:21.785Z,44.31
2023-02-14T13:26:57.390Z,44.63
2023-02-14T13:29:27.339Z,46.07
2023-02-14T13:31:58.545Z,46.23
2023-02-14T13:34:32.755Z,47.30
2023-02-14T13:37:05.636Z,48.48
2023-02-14T13:39:38.395Z,48.71
2023-02-14T13:42:06.627Z,48.66
2023-02-14T13:44:50.670Z,49.73
2023-02-14T13:47:22.874Z,49.47
2023-02-14T13:49:54.068Z,49.24
2023-02-14T13:52:39.211Z,49.82
2023-02-14T13:55:15.753Z,49.80
2023-02-14T13:57:42.591Z,49.04
2023-02-14T14:00:18.785Z,50.06
2023-02-14T14:02:46.288Z,50.68
2023-02-14T14:05:35.460Z,49.49
2023-02-14T14:08:20.197Z,50.46
2023-02-14T14:10:48.126Z,50.76
2023-02-14T14:13:42.631Z,50.91
2023-02-14T14:16:24.550Z,49.73
2023-02-14T14:18:54.175Z,50.18
2023-02-14T14:21:25.163Z,51.07
2023-02-14T14:24:20.662Z,50.80
2023-02-14T14:26:50.603Z,50.71
2023-02-14T14:29:36.079Z,50.66
2023-02-14T14:32:34.717Z,50.67
2023-02-14T14:35:08.197Z,49.88
2023-02-14T14:37:45.600Z,50.63
2023-02-14T14:40:27.126Z,50.97
2023-02-14T14:42:55.736Z,51.14
2023-02-14T14:45:26.529Z,50.88
2023-02-14T14:47:56.365Z,50.73
2023-02-14T14:50:25.778Z,51.61
2023-02-14T14:52:55.586Z,51.79
2023-02-14T14:55:26.496Z,52.01
2023-02-14T14:57:55.830Z,51.72
2023-02-14T15:00:24.449Z,50.34
2023-02-14T15:02:56.804Z,51.52
2023-02-14T15:05:43.820Z,51.89
2023-02-14T15:08:32.870Z,51.99
2023-02-14T15:11:39.737Z,51.71
2023-02-14T15:14:13.297Z,51.91
2023-02-14T15:16:51.960Z,52.57
2023-02-14T15:19:31.289Z,52.61
2023-02-14T15:22:05.823Z,52.36
2023-02-14T15:24:35.648Z,52.83
2023-02-14T15:27:02.942Z,52.67
2023-02-14T15:29:32.568Z,51.67
2023-02-14T15:32:03.115Z,52.15
2023-02-14T15:34:37.764Z,52.30
2023-02-14T15:37:39.997Z,51.90
2023-02-14T15:40:08.680Z,52.31
2023-02-14T15:42:40.583Z,52.35
2023-02-14T15:45:28.119Z,52.48
2023-02-14T15:48:02.754Z,52.71
2023-02-14T15:50:32.247Z,53.08
2023-02-14T15:53:26.793Z,53.34
2023-02-14T15:55:54.928Z,53.43
2023-02-14T15:58:38.784Z,53.50
2023-02-14T16:01:06.165Z,53.75
2023-02-14T16:03:37.010Z,54.00
2023-02-14T16:06:04.759Z,54.07
2023-02-14T16:08:35.096Z,54.31
2023-02-14T16:11:30.636Z,54.73
2023-02-14T16:13:57.374Z,54.71
2023-02-14T16:16:23.879Z,54.44
2023-02-14T16:18:56.531Z,54.70
2023-02-14T16:21:24.340Z,55.39
2023-02-14T16:24:11.982Z,55.60
2023-02-14T16:26:41.207Z,55.89
2023-02-14T16:29:10.047Z,56.90
2023-02-14T16:31:51.882Z,56.81
2023-02-14T16:34:18.465Z,57.47
2023-02-14T16:36:45.463Z,57.79
2023-02-14T16:39:24.722Z,58.15
2023-02-14T16:41:54.126Z,58.08
2023-02-14T16:44:20.527Z,58.07
2023-02-14T16:46:46.903Z,59.09
2023-02-14T16:49:14.665Z,58.65
2023-02-14T16:51:44.216Z,58.37
2023-02-14T16:54:24.006Z,58.70
2023-02-14T16:56:57.447Z,59.26
2023-02-14T16:59:23.794Z,59.68
2023-02-14T17:01:50.409Z,58.80
2023-02-14T17:04:17.403Z,58.71
2023-02-14T17:06:49.667Z,58.82
2023-02-14T17:09:20.055Z,59.87
2023-02-14T17:11:50.475Z,59.77
2023-02-14T17:14:22.862Z,61.26
2023-02-14T17:16:49.648Z,60.63
2023-02-14T17:19:16.487Z,59.50
2023-02-14T17:21:42.980Z,59.38
2023-02-14T17:24:09.488Z,59.27
2023-02-14T17:26:37.970Z,61.06
2023-02-14T17:29:06.718Z,60.38
2023-02-14T17:31:34.798Z,60.28
2023-02-14T17:34:01.257Z,60.20
2023-02-14T17:36:27.826Z,60.25
2023-02-14T17:38:54.778Z,59.81
2023-02-14T17:41:26.329Z,61.02
2023-02-14T17:43:54.792Z,62.10
2023-02-14T17:46:21.849Z,62.99
2023-02-14T17:48:49.182Z,63.80
2023-02-14T17:51:17.949Z,64.55
2023-02-14T17:53:44.569Z,63.72
2023-02-14T17:56:13.880Z,62.56
2023-02-14T17:58:40.668Z,62.02
2023-02-14T18:01:09.724Z,62.82
2023-02-14T18:03:36.274Z,61.96
2023-02-14T18:06:03.573Z,60.93
2023-02-14T18:08:35.350Z,61.34
2023-02-14T18:11:06.364Z,62.04
2023-02-14T18:13:33.922Z,61.87
2023-02-14T18:16:12.768Z,62.93
2023-02-14T18:18:39.245Z,61.73
2023-02-14T18:21:08.246Z,61.38
2023-02-14T18:23:35.183Z,61.64
2023-02-14T18:26:06.948Z,61.36
2023-02-14T18:28:34.265Z,61.35
2023-02-14T18:31:11.501Z,62.24
2023-02-14T18:33:39.108Z,63.79
2023-02-14T18:36:08.753Z,64.41
2023-02-14T18:38:35.399Z,64.09
2023-02-14T18:41:07.230Z,63.71
2023-02-14T18:43:34.449Z,63.01
2023-02-14T18:46:05.677Z,63.51
2023-02-14T18:48:33.364Z,62.23
2023-02-14T18:51:14.489Z,62.23
2023-02-14T18:53:42.034Z,61.30
2023-02-14T18:56:14.251Z,61.83
2023-02-14T18:58:44.427Z,62.17
2023-02-14T19:01:19.480Z,63.26
2023-02-14T19:03:45.979Z,61.98
2023-02-14T19:06:12.937Z,63.01
2023-02-14T19:08:40.770Z,63.84
2023-02-14T19:11:13.196Z,63.79
2023-02-14T19:13:40.051Z,62.70
2023-02-14T19:16:12.180Z,61.42
2023-02-14T19:18:39.412Z,62.31
2023-02-14T19:21:17.814Z,63.61
2023-02-14T19:23:44.363Z,65.19
2023-02-14T19:26:13.822Z,65.80
2023-02-14T19:28:41.888Z,64.95
2023-02-14T19:31:08.865Z,65.45
2023-02-14T19:33:40.583Z,63.78
2023-02-14T19:36:09.742Z,63.28
2023-02-14T19:38:36.334Z,62.86
2023-02-14T19:41:03.193Z,62.63
2023-02-14T19:43:29.955Z,62.58
2023-02-14T19:45:56.518Z,62.64
2023-02-14T19:48:23.700Z,62.44
2023-02-14T19:50:50.744Z,62.75
2023-02-14T19:53:17.222Z,62.40
2023-02-14T19:55:43.729Z,63.23
2023-02-14T19:58:10.360Z,63.66
2023-02-14T20:00:37.940Z,63.74
2023-02-14T20:03:04.794Z,64.30
2023-02-14T20:05:31.701Z,65.26
2023-02-14T20:07:58.999Z,66.68
2023-02-14T20:10:25.574Z,67.33
2023-02-14T20:12:51.934Z,67.10
2023-02-14T20:15:18.437Z,66.73
2023-02-14T20:17:44.915Z,66.54
2023-02-14T20:20:13.863Z,65.56
2023-02-14T20:22:41.148Z,66.06
2023-02-14T20:25:09.145Z,64.97
2023-02-14T20:27:36.592Z,63.79
2023-02-14T20:30:04.001Z,64.10
2023-02-14T20:32:30.553Z,64.75
2023-02-14T20:34:57.957Z,66.68
2023-02-14T20:37:25.130Z,65.88
2023-02-14T20:39:51.506Z,64.48
2023-02-14T20:42:17.887Z,63.97
2023-02-14T20:44:45.289Z,65.86
2023-02-14T20:47:11.838Z,66.71
2023-02-14T20:49:39.198Z,65.71
2023-02-14T20:52:05.978Z,65.29
2023-02-14T20:54:32.626Z,64.81
2023-02-14T20:56:59.012Z,64.82
2023-02-14T20:59:28.773Z,65.18
2023-02-14T21:01:57.390Z,64.72
2023-02-14T21:04:25.204Z,63.44
2023-02-14T21:06:51.798Z,63.85
2023-02-14T21:09:20.488Z,65.39
2023-02-14T21:11:46.982Z,64.78
2023-02-14T21:14:13.335Z,64.57
2023-02-14T21:16:39.704Z,65.21
2023-02-14T21:19:06.208Z,64.60
2023-02-14T21:21:36.215Z,64.53
2023-02-14T21:24:08.862Z,64.23
2023-02-14T21:26:36.001Z,64.40
2023-02-14T21:29:02.924Z,64.19
2023-02-14T21:31:30.248Z,63.88
2023-02-14T21:33:58.437Z,64.08
2023-02-14T21:36:27.184Z,64.23
2023-02-14T21:38:55.775Z,64.27
2023-02-14T21:41:23.796Z,64.38
2023-02-14T21:43:52.944Z,64.29
2023-02-14T21:46:27.297Z,64.48
2023-02-14T21:49:14.090Z,64.46
2023-02-14T21:51:41.220Z,64.74
2023-02-14T21:54:07.977Z,64.83
2023-02-14T21:56:35.967Z,64.55
2023-02-14T21:59:02.730Z,64.69
2023-02-14T22:01:31.965Z,64.33
2023-02-14T22:03:59.259Z,64.53
2023-02-14T22:06:26.873Z,64.39
2023-02-14T22:08:58.188Z,64.54
2023-02-14T22:11:27.023Z,65.29
2023-02-14T22:13:53.559Z,64.83
2023-02-14T22:16:21.413Z,65.24
2023-02-14T22:18:48.251Z,65.10
2023-02-14T22:21:17.933Z,65.61
2023-02-14T22:23:45.008Z,65.82
2023-02-14T22:26:26.721Z,65.34
2023-02-14T22:28:59.097Z,65.66
2023-02-14T22:31:27.103Z,65.13
2023-02-14T22:33:54.069Z,65.88
2023-02-14T22:36:21.148Z,65.63
2023-02-14T22:38:47.914Z,65.25
2023-02-14T22:41:18.824Z,65.08
2023-02-14T22:43:45.672Z,65.72
2023-02-14T22:46:18.016Z,65.95
2023-02-14T22:48:45.187Z,64.69
2023-02-14T22:51:32.987Z,66.14
2023-02-14T22:54:05.557Z,66.33
2023-02-14T22:56:38.823Z,66.15
2023-02-14T22:59:16.950Z,65.91
2023-02-14T23:01:44.008Z,66.03
2023-02-14T23:04:10.913Z,65.52
2023-02-14T23:06:37.857Z,66.19
2023-02-14T23:09:07.382Z,65.87
2023-02-14T23:11:35.998Z,65.67
2023-02-14T23:14:21.582Z,65.48
2023-02-14T23:17:06.832Z,65.94
2023-02-14T23:19:53.761Z,65.38
2023-02-14T23:22:24.846Z,65.60
2023-02-14T23:24:53.216Z,65.69
2023-02-14T23:27:23.122Z,66.08
2023-02-14T23:29:49.579Z,65.97
2023-02-14T23:32:16.344Z,66.19
2023-02-14T23:34:44.086Z,66.21
2023-02-14T23:37:11.236Z,65.92
2023-02-14T23:39:37.716Z,66.14
2023-02-14T23:42:06.185Z,65.90
2023-02-14T23:44:33.272Z,66.28
2023-02-14T23:47:01.786Z,66.36
2023-02-14T23:49:28.170Z,66.16
2023-02-14T23:51:55.618Z,66.28
2023-02-14T23:54:23.261Z,65.88
2023-02-14T23:56:51.105Z,66.41
2023-02-14T23:59:17.477Z,66.32
